METAR Data
IDs: Format: Raw Decoded Include TAF

Data at: 1441 UTC 19 Aug 2019

METAR for:KAUS (Austin/Bergstrom Int, TX, US)
Text:KAUS 191420Z 19008KT 10SM FEW010 SCT016 BKN024 29/25 A3001 RMK AO2 T02940250
Temperature: 29.4°C ( 85°F)
Dewpoint: 25.0°C ( 77°F) [RH = 77%]
Pressure (altimeter):30.01 inches Hg (1016.3 mb)
Winds:from the S (190 degrees) at 9 MPH (8 knots; 4.1 m/s)
Visibility:10 or more sm (16+ km)
Ceiling:2400 feet AGL
Clouds: few clouds at 1000 feet AGL, scattered clouds at 1600 feet AGL, broken clouds at 2400 feet AGL